Terminal Aerodrome Forecast
Issued by NWS

Home | Current Version | Previous Version | Text Only | Print | Product List | Glossary On
Versions: 1 2 3 4 5 6 7 8 9 10 11 12 13 14 15 16 17 18 19 20 21 22 23 24 25
000
FTUS41 KALY 221100
TAFPSF
TAF
KPSF 221136Z 2212/2312 10005KT P6SM -SHRA SCT015 OVC030
      TEMPO 2212/2214 3SM -SHRA BR SCT008 OVC015
     FM230200 09004KT P6SM VCSH BKN015 OVC025
     FM230900 VRB03KT 3SM BR VCSH SCT006 OVC012=

USA.gov is the U.S. government's official web portal to all federal, state and local government web resources and services.